createdAt,value
2023-03-05T00:00:18.186Z,84.68
2023-03-05T00:01:18.140Z,85.30
2023-03-05T00:02:18.173Z,84.58
2023-03-05T00:03:19.142Z,84.78
2023-03-05T00:04:18.098Z,85.72
2023-03-05T00:05:18.106Z,85.93
2023-03-05T00:06:18.140Z,86.34
2023-03-05T00:07:18.058Z,86.44
2023-03-05T00:08:19.071Z,86.90
2023-03-05T00:09:18.061Z,87.42
2023-03-05T00:10:18.051Z,87.94
2023-03-05T00:11:18.033Z,89.08
2023-03-05T00:12:18.039Z,88.98
2023-03-05T00:13:17.981Z,88.98
2023-03-05T00:14:18.891Z,89.23
2023-03-05T00:15:17.962Z,89.54
2023-03-05T00:16:18.061Z,90.06
2023-03-05T00:17:17.937Z,90.37
2023-03-05T00:18:17.930Z,91.04
2023-03-05T00:19:18.826Z,91.25
2023-03-05T00:20:17.886Z,91.25
2023-03-05T00:21:17.909Z,91.56
2023-03-05T00:22:17.902Z,91.77
2023-03-05T00:23:17.848Z,92.08
2023-03-05T00:24:18.810Z,92.08
2023-03-05T00:25:17.830Z,92.29
2023-03-05T00:26:17.840Z,92.08
2023-03-05T00:27:17.779Z,91.28
2023-03-05T00:28:17.797Z,90.66
2023-03-05T00:29:17.794Z,91.28
2023-03-05T00:30:18.727Z,91.71
2023-03-05T00:31:17.874Z,91.39
2023-03-05T00:32:17.794Z,91.50
2023-03-05T00:33:17.716Z,91.91
2023-03-05T00:34:17.713Z,92.12
2023-03-05T00:35:17.688Z,92.43
2023-03-05T00:36:18.613Z,92.43
2023-03-05T00:37:17.694Z,92.54
2023-03-05T00:38:17.659Z,92.54
2023-03-05T00:39:17.649Z,92.22
2023-03-05T00:40:17.744Z,91.50
2023-03-05T00:41:17.631Z,91.18
2023-03-05T00:42:18.566Z,91.08
2023-03-05T00:43:17.597Z,91.08
2023-03-05T00:44:17.617Z,90.66
2023-03-05T00:45:17.610Z,90.87
2023-03-05T00:46:17.632Z,91.18
2023-03-05T00:47:18.579Z,90.56
2023-03-05T00:48:18.459Z,90.45
2023-03-05T00:49:17.544Z,90.56
2023-03-05T00:50:17.527Z,90.25
2023-03-05T00:51:17.547Z,89.94
2023-03-05T00:52:17.514Z,89.62
2023-03-05T00:53:18.381Z,89.52
2023-03-05T00:54:18.424Z,89.62
2023-03-05T00:55:17.455Z,89.10
2023-03-05T00:56:17.423Z,89.00
2023-03-05T00:57:17.443Z,88.17
2023-03-05T00:58:17.436Z,87.85
2023-03-05T00:59:18.329Z,87.43
2023-03-05T01:00:17.398Z,87.43
2023-03-05T01:01:18.388Z,87.54
2023-03-05T01:02:17.368Z,87.43
2023-03-05T01:03:17.361Z,86.60
2023-03-05T01:04:18.256Z,86.40
2023-03-05T01:05:17.361Z,85.98
2023-03-05T01:06:17.291Z,86.08
2023-03-05T01:07:17.312Z,85.35
2023-03-05T01:08:17.269Z,85.25
2023-03-05T01:09:18.186Z,85.14
2023-03-05T01:10:17.254Z,84.00
2023-03-05T01:11:17.217Z,83.69
2023-03-05T01:12:17.203Z,83.69
2023-03-05T01:13:17.214Z,83.17
2023-03-05T01:14:18.134Z,82.86
2023-03-05T01:15:17.159Z,81.81
2023-03-05T01:16:17.203Z,82.03
2023-03-05T01:17:17.179Z,81.81
2023-03-05T01:18:17.198Z,80.98
2023-03-05T01:19:17.529Z,80.67
2023-03-05T01:20:18.045Z,81.05
2023-03-05T01:21:17.161Z,82.82
2023-03-05T01:22:17.084Z,80.63
2023-03-05T01:23:17.051Z,79.59
2023-03-05T01:24:17.052Z,80.22
2023-03-05T01:25:17.051Z,79.80
2023-03-05T01:26:17.982Z,79.28
2023-03-05T01:27:17.023Z,79.49
2023-03-05T01:28:17.010Z,78.45
2023-03-05T01:29:17.020Z,79.35
2023-03-05T01:30:16.977Z,77.89
2023-03-05T01:31:17.954Z,76.68
2023-03-05T01:32:17.007Z,76.99
2023-03-05T01:33:16.927Z,78.03
2023-03-05T01:34:16.961Z,75.64
2023-03-05T01:35:16.944Z,76.26
2023-03-05T01:37:15.282Z,74.80
2023-03-05T01:38:15.362Z,74.91
2023-03-05T01:39:15.272Z,74.49
2023-03-05T01:40:15.313Z,73.90
2023-03-05T01:41:15.258Z,74.21
2023-03-05T01:42:17.131Z,74.43
2023-03-05T01:43:15.195Z,74.11
2023-03-05T01:44:15.166Z,73.80
2023-03-05T01:45:15.151Z,73.59
2023-03-05T01:46:15.188Z,73.90
2023-03-05T01:47:15.148Z,76.51
2023-03-05T01:48:16.111Z,74.53
2023-03-05T01:49:15.275Z,73.69
2023-03-05T01:50:15.146Z,73.28
2023-03-05T01:51:15.095Z,73.18
2023-03-05T01:52:15.081Z,72.86
2023-03-05T01:53:15.984Z,72.55
2023-03-05T01:54:15.122Z,72.86
2023-03-05T01:55:15.180Z,71.72
2023-03-05T01:56:15.069Z,73.28
2023-03-05T01:57:15.113Z,72.10
2023-03-05T01:58:16.871Z,71.37
2023-03-05T01:59:15.064Z,70.99
2023-03-05T02:00:14.990Z,70.78
2023-03-05T02:01:15.046Z,70.68
2023-03-05T02:02:14.958Z,71.20
2023-03-05T02:03:15.053Z,71.09
2023-03-05T02:04:16.013Z,70.78
2023-03-05T02:05:15.005Z,72.45
2023-03-05T02:06:14.932Z,70.68
2023-03-05T02:07:14.924Z,71.72
2023-03-05T02:08:14.874Z,70.47
2023-03-05T02:09:15.871Z,70.26
2023-03-05T02:10:14.846Z,69.22
2023-03-05T02:11:14.916Z,68.80
2023-03-05T02:12:14.855Z,68.28
2023-03-05T02:13:15.791Z,69.64
2023-03-05T02:14:14.896Z,68.80
2023-03-05T02:15:15.729Z,69.01
2023-03-05T02:16:14.788Z,68.80
2023-03-05T02:17:14.810Z,69.64
2023-03-05T02:18:14.816Z,68.28
2023-03-05T02:19:14.752Z,67.97
2023-03-05T02:20:15.689Z,67.66
2023-03-05T02:21:15.679Z,67.55
2023-03-05T02:22:14.679Z,68.28
2023-03-05T02:23:15.693Z,69.22
2023-03-05T02:24:14.673Z,69.84
2023-03-05T02:25:14.672Z,68.80
2023-03-05T02:26:15.580Z,69.92
2023-03-05T02:27:14.642Z,69.40
2023-03-05T02:28:14.599Z,68.56
2023-03-05T02:29:14.680Z,67.42
2023-03-05T02:30:14.645Z,66.80
2023-03-05T02:31:15.589Z,66.97
2023-03-05T02:32:14.695Z,65.86
2023-03-05T02:33:14.622Z,66.17
2023-03-05T02:34:14.678Z,66.83
2023-03-05T02:35:14.565Z,66.72
2023-03-05T02:36:14.565Z,66.83
2023-03-05T02:37:15.609Z,67.35
2023-03-05T02:38:14.538Z,66.93
2023-03-05T02:39:14.600Z,66.62
2023-03-05T02:40:14.478Z,66.86
2023-03-05T02:41:14.486Z,67.38
2023-03-05T02:42:15.402Z,68.42
2023-03-05T02:43:14.480Z,68.00
2023-03-05T02:44:14.395Z,68.10
2023-03-05T02:45:14.444Z,68.32
2023-03-05T02:46:14.430Z,67.69
2023-03-05T02:47:15.394Z,67.69
2023-03-05T02:48:14.516Z,67.79
2023-03-05T02:49:14.369Z,68.32
2023-03-05T02:50:14.400Z,68.21
2023-03-05T02:51:14.314Z,68.21
2023-03-05T02:52:15.260Z,68.70
2023-03-05T02:53:14.419Z,68.18
2023-03-05T02:54:14.299Z,68.07
2023-03-05T02:55:14.574Z,67.97
2023-03-05T02:56:14.266Z,67.86
2023-03-05T02:57:15.298Z,67.79
2023-03-05T02:58:14.286Z,67.90
2023-03-05T02:59:14.251Z,68.42
2023-03-05T03:00:14.351Z,69.35
2023-03-05T03:01:14.239Z,69.25
2023-03-05T03:02:14.205Z,69.15
2023-03-05T03:03:15.206Z,68.70
2023-03-05T03:04:14.209Z,68.07
2023-03-05T03:05:14.177Z,67.90
2023-03-05T03:06:14.230Z,67.79
2023-03-05T03:07:14.121Z,68.84
2023-03-05T03:08:14.141Z,68.52
2023-03-05T03:09:15.097Z,68.42
2023-03-05T03:10:14.100Z,68.32
2023-03-05T03:11:15.027Z,68.32
2023-03-05T03:12:14.081Z,68.21
2023-03-05T03:13:14.105Z,68.73
2023-03-05T03:14:14.079Z,68.32
2023-03-05T03:15:14.998Z,68.52
2023-03-05T03:16:15.034Z,68.52
2023-03-05T03:17:14.002Z,68.52
2023-03-05T03:18:14.017Z,68.63
2023-03-05T03:19:13.979Z,68.84
2023-03-05T03:20:14.978Z,68.84
2023-03-05T03:21:13.937Z,69.25
2023-03-05T03:22:13.976Z,69.25
2023-03-05T03:23:15.036Z,69.15
2023-03-05T03:24:13.946Z,69.07
2023-03-05T03:25:13.953Z,69.25
2023-03-05T03:26:14.875Z,69.38
2023-03-05T03:27:13.948Z,69.28
2023-03-05T03:28:13.898Z,69.28
2023-03-05T03:29:13.954Z,69.38
2023-03-05T03:30:13.892Z,69.81
2023-03-05T03:31:14.911Z,70.43
2023-03-05T03:32:13.817Z,69.87
2023-03-05T03:33:13.877Z,69.56
2023-03-05T03:34:13.774Z,69.56
2023-03-05T03:35:13.781Z,69.56
2023-03-05T03:36:13.752Z,69.25
2023-03-05T03:37:14.775Z,69.35
2023-03-05T03:38:13.739Z,69.56
2023-03-05T03:39:13.743Z,69.98
2023-03-05T03:40:13.724Z,69.77
2023-03-05T03:41:13.718Z,69.77
2023-03-05T03:42:14.658Z,69.77
2023-03-05T03:43:14.619Z,70.01
2023-03-05T03:44:13.672Z,70.12
2023-03-05T03:45:13.681Z,70.01
2023-03-05T03:46:13.696Z,70.53
2023-03-05T03:47:14.609Z,70.64
2023-03-05T03:48:13.658Z,70.53
2023-03-05T03:49:13.586Z,70.64
2023-03-05T03:50:14.245Z,70.95
2023-03-05T03:51:13.632Z,70.84
2023-03-05T03:52:14.643Z,71.16
2023-03-05T03:53:13.545Z,71.26
2023-03-05T03:54:13.542Z,71.47
2023-03-05T03:55:13.544Z,71.37
2023-03-05T03:56:14.497Z,71.71
2023-03-05T03:57:13.521Z,72.02
2023-03-05T03:58:14.481Z,72.02
2023-03-05T03:59:13.536Z,72.13
2023-03-05T04:00:13.490Z,72.34
2023-03-05T04:01:13.490Z,72.55
2023-03-05T04:02:13.515Z,72.65
2023-03-05T04:03:15.334Z,72.96
2023-03-05T04:04:13.440Z,73.21
2023-03-05T04:05:13.467Z,73.31
2023-03-05T04:06:14.422Z,73.31
2023-03-05T04:07:13.463Z,73.41
2023-03-05T04:08:13.399Z,73.41
2023-03-05T04:09:14.289Z,73.72
2023-03-05T04:10:13.347Z,73.83
2023-03-05T04:11:13.400Z,73.72
2023-03-05T04:12:13.337Z,73.83
2023-03-05T04:13:13.326Z,73.83
2023-03-05T04:14:15.251Z,73.93
2023-03-05T04:15:13.293Z,74.04
2023-03-05T04:16:13.314Z,74.15
2023-03-05T04:17:13.240Z,74.35
2023-03-05T04:18:13.352Z,74.46
2023-03-05T04:19:14.172Z,74.87
2023-03-05T04:20:13.368Z,74.56
2023-03-05T04:21:13.357Z,74.56
2023-03-05T04:22:13.456Z,74.66
2023-03-05T04:23:13.237Z,74.77
2023-03-05T04:24:14.174Z,74.87
2023-03-05T04:25:14.069Z,74.77
2023-03-05T04:26:14.098Z,75.18
2023-03-05T04:27:13.140Z,74.98
2023-03-05T04:28:13.245Z,74.87
2023-03-05T04:29:13.190Z,74.98
2023-03-05T04:30:14.051Z,74.66
2023-03-05T04:31:13.132Z,74.98
2023-03-05T04:32:13.236Z,75.29
2023-03-05T04:33:13.085Z,74.87
2023-03-05T04:34:13.075Z,75.08
2023-03-05T04:35:12.999Z,75.18
2023-03-05T04:36:13.962Z,75.40
2023-03-05T04:37:13.084Z,75.71
2023-03-05T04:38:13.038Z,75.92
2023-03-05T04:39:12.971Z,75.92
2023-03-05T04:40:12.960Z,76.06
2023-03-05T04:41:12.980Z,76.26
2023-03-05T04:42:13.880Z,76.37
2023-03-05T04:43:12.905Z,76.57
2023-03-05T04:44:12.906Z,76.79
2023-03-05T04:45:12.880Z,76.68
2023-03-05T04:46:12.977Z,76.68
2023-03-05T04:47:12.888Z,77.00
2023-03-05T04:48:13.774Z,76.68
2023-03-05T04:49:12.912Z,76.79
2023-03-05T04:50:12.860Z,76.79
2023-03-05T04:51:12.948Z,76.79
2023-03-05T04:52:12.823Z,76.89
2023-03-05T04:53:13.730Z,77.10
2023-03-05T04:54:12.903Z,77.31
2023-03-05T04:55:12.802Z,77.41
2023-03-05T04:56:12.773Z,77.41
2023-03-05T04:57:12.764Z,77.51
2023-03-05T04:58:13.654Z,77.51
2023-03-05T04:59:12.707Z,77.72
2023-03-05T05:00:12.693Z,77.83
2023-03-05T05:01:12.719Z,77.94
2023-03-05T05:02:12.697Z,78.14
2023-03-05T05:03:13.723Z,78.25
2023-03-05T05:04:12.685Z,78.35
2023-03-05T05:05:12.676Z,78.87
2023-03-05T05:06:12.648Z,78.25
2023-03-05T05:07:12.639Z,78.35
2023-03-05T05:08:12.660Z,78.25
2023-03-05T05:09:13.579Z,78.35
2023-03-05T05:10:12.553Z,78.25
2023-03-05T05:11:12.569Z,78.35
2023-03-05T05:12:12.565Z,78.45
2023-03-05T05:13:12.708Z,78.56
2023-03-05T05:14:12.633Z,78.66
2023-03-05T05:15:13.445Z,78.77
2023-03-05T05:16:12.559Z,78.87
2023-03-05T05:17:12.578Z,78.97
2023-03-05T05:18:12.495Z,78.97
2023-03-05T05:19:12.585Z,78.97
2023-03-05T05:20:13.442Z,79.08
2023-03-05T05:21:12.461Z,79.19
2023-03-05T05:22:12.417Z,79.19
2023-03-05T05:23:12.465Z,79.29
2023-03-05T05:24:12.369Z,79.29
2023-03-05T05:25:12.399Z,79.50
2023-03-05T05:26:13.460Z,79.60
2023-03-05T05:27:12.472Z,79.60
2023-03-05T05:28:12.429Z,79.81
2023-03-05T05:29:12.403Z,79.95
2023-03-05T05:30:12.328Z,80.02
2023-03-05T05:31:12.333Z,80.02
2023-03-05T05:32:13.282Z,80.44
2023-03-05T05:33:12.321Z,80.02
2023-03-05T05:34:12.281Z,80.23
2023-03-05T05:35:12.233Z,80.02
2023-03-05T05:36:12.371Z,79.91
2023-03-05T05:37:13.285Z,79.81
2023-03-05T05:38:12.231Z,79.81
2023-03-05T05:39:12.198Z,80.33
2023-03-05T05:40:12.242Z,80.23
2023-03-05T05:41:14.894Z,80.02
2023-03-05T05:42:13.095Z,79.81
2023-03-05T05:43:12.249Z,80.02
2023-03-05T05:44:12.198Z,79.77
2023-03-05T05:45:12.272Z,79.91
2023-03-05T05:46:12.283Z,80.13
2023-03-05T05:47:12.116Z,79.88
2023-03-05T05:48:13.025Z,79.77
2023-03-05T05:49:12.096Z,79.77
2023-03-05T05:50:12.061Z,79.88
2023-03-05T05:51:12.137Z,79.88
2023-03-05T05:52:12.238Z,79.88
2023-03-05T05:53:13.111Z,79.88
2023-03-05T05:54:12.019Z,79.88
2023-03-05T05:55:12.045Z,80.19
2023-03-05T05:56:11.985Z,79.88
2023-03-05T05:57:12.060Z,79.88
2023-03-05T05:58:13.007Z,79.98
2023-03-05T05:59:11.983Z,79.98
2023-03-05T06:00:12.184Z,80.09
2023-03-05T06:01:12.001Z,80.09
2023-03-05T06:02:11.950Z,79.88
2023-03-05T06:03:12.943Z,80.19
2023-03-05T06:04:11.897Z,80.09
2023-03-05T06:05:12.113Z,79.63
2023-03-05T06:06:12.645Z,79.22
2023-03-05T06:07:11.950Z,79.36
2023-03-05T06:08:12.068Z,79.57
2023-03-05T06:09:12.820Z,79.57
2023-03-05T06:10:11.887Z,79.46
2023-03-05T06:11:11.797Z,79.53
2023-03-05T06:12:11.800Z,79.43
2023-03-05T06:13:11.769Z,79.53
2023-03-05T06:14:12.698Z,79.43
2023-03-05T06:15:11.761Z,79.22
2023-03-05T06:16:11.798Z,79.32
2023-03-05T06:17:14.820Z,79.32
2023-03-05T06:18:11.751Z,79.46
2023-03-05T06:19:11.708Z,79.77
2023-03-05T06:20:13.301Z,79.88
2023-03-05T06:21:11.847Z,79.98
2023-03-05T06:22:11.834Z,79.88
2023-03-05T06:23:11.651Z,79.67
2023-03-05T06:24:11.669Z,79.88
2023-03-05T06:25:12.585Z,79.88
2023-03-05T06:26:11.609Z,79.88
2023-03-05T06:27:11.669Z,79.74
2023-03-05T06:28:11.569Z,79.74
2023-03-05T06:29:11.576Z,79.77
2023-03-05T06:30:12.512Z,79.88
2023-03-05T06:31:11.606Z,79.94
2023-03-05T06:32:11.596Z,79.94
2023-03-05T06:33:11.580Z,79.94
2023-03-05T06:34:11.507Z,79.84
2023-03-05T06:35:11.505Z,79.84
2023-03-05T06:36:12.384Z,79.94
2023-03-05T06:37:11.672Z,79.74
2023-03-05T06:38:12.366Z,79.53
2023-03-05T06:39:11.539Z,79.43
2023-03-05T06:40:11.442Z,79.53
2023-03-05T06:41:11.466Z,79.39
2023-03-05T06:42:12.324Z,78.97
2023-03-05T06:43:11.462Z,78.77
2023-03-05T06:44:11.449Z,78.87
2023-03-05T06:45:11.352Z,78.97
2023-03-05T06:46:11.427Z,78.77
2023-03-05T06:47:12.314Z,78.34
2023-03-05T06:48:11.436Z,78.10
2023-03-05T06:49:11.341Z,78.42
2023-03-05T06:50:11.304Z,78.20
2023-03-05T06:51:11.327Z,78.20
2023-03-05T06:52:11.284Z,77.58
2023-03-05T06:53:12.199Z,77.27
2023-03-05T06:54:11.303Z,77.37
2023-03-05T06:55:11.262Z,77.48
2023-03-05T06:56:11.243Z,77.48
2023-03-05T06:57:11.235Z,77.17
2023-03-05T06:58:12.172Z,77.17
2023-03-05T06:59:11.180Z,77.27
2023-03-05T07:00:11.236Z,77.17
2023-03-05T07:01:11.230Z,77.06
2023-03-05T07:02:11.247Z,76.65
2023-03-05T07:03:11.194Z,76.86
2023-03-05T07:04:12.127Z,76.89
2023-03-05T07:05:11.125Z,77.20
2023-03-05T07:06:11.104Z,77.10
2023-03-05T07:07:11.135Z,77.37
2023-03-05T07:08:11.077Z,76.96
2023-03-05T07:09:11.078Z,76.96
2023-03-05T07:10:11.981Z,76.20
2023-03-05T07:11:11.066Z,75.78
2023-03-05T07:12:11.248Z,75.98
2023-03-05T07:13:11.012Z,75.26
2023-03-05T07:14:11.014Z,75.26
2023-03-05T07:15:11.920Z,75.46
2023-03-05T07:16:11.026Z,75.95
2023-03-05T07:17:11.097Z,75.12
2023-03-05T07:18:11.087Z,75.74
2023-03-05T07:19:11.009Z,73.97
2023-03-05T07:20:11.027Z,74.18
2023-03-05T07:21:17.698Z,74.15
2023-03-05T07:22:11.802Z,73.21
2023-03-05T07:23:10.870Z,72.80
2023-03-05T07:24:10.892Z,73.21
2023-03-05T07:25:10.913Z,73.42
2023-03-05T07:26:10.942Z,73.73
2023-03-05T07:27:11.809Z,73.11
2023-03-05T07:28:10.815Z,72.80
2023-03-05T07:29:10.808Z,73.00
2023-03-05T07:30:10.815Z,72.90
2023-03-05T07:31:10.839Z,72.38
2023-03-05T07:32:10.920Z,72.07
2023-03-05T07:33:12.012Z,71.55
2023-03-05T07:34:10.755Z,72.07
2023-03-05T07:35:10.757Z,71.86
2023-03-05T07:36:10.746Z,72.10
2023-03-05T07:37:10.711Z,72.20
2023-03-05T07:38:10.743Z,72.72
2023-03-05T07:39:11.654Z,71.89
2023-03-05T07:40:10.651Z,72.10
2023-03-05T07:41:10.650Z,73.00
2023-03-05T07:42:10.706Z,72.90
2023-03-05T07:43:10.654Z,71.97
2023-03-05T07:44:11.586Z,71.55
2023-03-05T07:45:10.652Z,71.72
2023-03-05T07:46:10.658Z,70.79
2023-03-05T07:47:10.643Z,70.68
2023-03-05T07:48:10.571Z,70.82
2023-03-05T07:49:10.578Z,71.62
2023-03-05T07:50:11.503Z,71.10
2023-03-05T07:51:10.530Z,71.72
2023-03-05T07:52:10.726Z,71.62
2023-03-05T07:53:10.508Z,71.72
2023-03-05T07:54:10.623Z,70.48
2023-03-05T07:55:11.382Z,70.48
2023-03-05T07:56:10.634Z,70.17
2023-03-05T07:57:10.450Z,70.27
2023-03-05T07:58:10.454Z,69.96
2023-03-05T07:59:10.505Z,69.85
2023-03-05T08:00:11.351Z,69.54
2023-03-05T08:01:12.533Z,69.43
2023-03-05T08:02:11.186Z,70.09
2023-03-05T08:03:10.718Z,70.20
2023-03-05T08:04:10.837Z,70.30
2023-03-05T08:06:09.299Z,70.09
2023-03-05T08:07:09.279Z,69.99
2023-03-05T08:08:09.300Z,70.82
2023-03-05T08:09:09.275Z,71.03
2023-03-05T08:10:10.214Z,70.51
2023-03-05T08:11:09.267Z,70.17
2023-03-05T08:12:09.217Z,69.74
2023-03-05T08:13:09.263Z,68.88
2023-03-05T08:14:09.186Z,68.26
2023-03-05T08:15:09.204Z,68.47
2023-03-05T08:16:10.171Z,68.33
2023-03-05T08:17:09.189Z,67.50
2023-03-05T08:18:09.165Z,67.50
2023-03-05T08:19:09.140Z,67.61
2023-03-05T08:20:09.127Z,67.61
2023-03-05T08:21:09.113Z,67.79
2023-03-05T08:22:10.075Z,66.64
2023-03-05T08:23:09.131Z,66.51
2023-03-05T08:24:09.075Z,66.68
2023-03-05T08:25:09.056Z,66.06
2023-03-05T08:26:09.108Z,65.00
2023-03-05T08:27:10.018Z,65.52
2023-03-05T08:28:09.032Z,64.79
2023-03-05T08:29:09.038Z,65.17
2023-03-05T08:30:09.014Z,64.24
2023-03-05T08:31:09.037Z,62.99
2023-03-05T08:32:09.940Z,63.31
2023-03-05T08:33:08.969Z,62.97
2023-03-05T08:34:08.951Z,61.52
2023-03-05T08:35:08.956Z,61.83
2023-03-05T08:36:08.915Z,60.89
2023-03-05T08:37:08.935Z,61.62
2023-03-05T08:38:09.828Z,60.89
2023-03-05T08:39:08.876Z,60.89
2023-03-05T08:40:08.931Z,61.21
2023-03-05T08:41:08.863Z,59.94
2023-03-05T08:42:09.131Z,59.45
2023-03-05T08:43:09.792Z,61.24
2023-03-05T08:44:08.838Z,61.65
2023-03-05T08:45:08.794Z,60.41
2023-03-05T08:46:08.916Z,60.93
2023-03-05T08:47:08.790Z,60.51
2023-03-05T08:48:09.746Z,60.61
2023-03-05T08:49:08.749Z,60.10
2023-03-05T08:50:08.779Z,60.43
2023-03-05T08:51:08.770Z,60.95
2023-03-05T08:52:08.710Z,60.12
2023-03-05T08:53:08.777Z,60.05
2023-03-05T08:54:09.603Z,60.88
2023-03-05T08:55:08.699Z,60.57
2023-03-05T08:56:08.703Z,61.08
2023-03-05T08:57:08.654Z,59.84
2023-03-05T08:58:08.674Z,60.28
2023-03-05T08:59:08.618Z,61.01
2023-03-05T09:00:09.553Z,61.22
2023-03-05T09:01:08.644Z,61.53
2023-03-05T09:02:08.631Z,61.50
2023-03-05T09:03:08.633Z,62.40
2023-03-05T09:04:08.560Z,60.93
2023-03-05T09:05:09.490Z,60.79
2023-03-05T09:06:08.543Z,59.00
2023-03-05T09:07:08.549Z,58.69
2023-03-05T09:08:08.637Z,59.42
2023-03-05T09:09:08.493Z,60.25
2023-03-05T09:10:08.580Z,59.21
2023-03-05T09:11:09.491Z,59.42
2023-03-05T09:12:10.589Z,59.19
2023-03-05T09:13:08.465Z,58.67
2023-03-05T09:14:08.463Z,59.08
2023-03-05T09:15:08.417Z,58.77
2023-03-05T09:16:08.410Z,58.25
2023-03-05T09:17:09.355Z,59.39
2023-03-05T09:18:08.392Z,59.70
2023-03-05T09:19:08.486Z,58.25
2023-03-05T09:20:08.373Z,58.31
2023-03-05T09:21:08.369Z,59.16
2023-03-05T09:22:08.320Z,59.91
2023-03-05T09:23:09.256Z,60.43
2023-03-05T09:24:08.292Z,61.26
2023-03-05T09:25:08.329Z,61.36
2023-03-05T09:26:08.255Z,61.47
2023-03-05T09:27:08.256Z,60.53
2023-03-05T09:28:09.212Z,60.12
2023-03-05T09:29:08.300Z,60.74
2023-03-05T09:30:08.301Z,59.71
2023-03-05T09:31:08.209Z,60.53
2023-03-05T09:32:08.316Z,59.91
2023-03-05T09:33:08.285Z,59.61
2023-03-05T09:34:09.101Z,60.22
2023-03-05T09:35:08.173Z,60.53
2023-03-05T09:36:08.147Z,60.02
2023-03-05T09:37:08.249Z,60.33
2023-03-05T09:38:08.167Z,60.33
2023-03-05T09:39:08.115Z,60.85
2023-03-05T09:40:09.037Z,59.89
2023-03-05T09:41:08.111Z,59.27
2023-03-05T09:42:10.230Z,57.60
2023-03-05T09:43:08.087Z,56.81
2023-03-05T09:44:08.049Z,57.01
2023-03-05T09:45:08.957Z,58.02
2023-03-05T09:46:08.116Z,57.81
2023-03-05T09:47:08.008Z,56.99
2023-03-05T09:48:08.012Z,56.96
2023-03-05T09:49:08.001Z,56.03
2023-03-05T09:50:08.887Z,56.13
2023-03-05T09:51:07.936Z,56.10
2023-03-05T09:52:07.950Z,56.83
2023-03-05T09:53:08.781Z,57.35
2023-03-05T09:54:07.956Z,56.10
2023-03-05T09:55:07.918Z,55.98
2023-03-05T09:56:08.939Z,55.56
2023-03-05T09:57:07.943Z,56.18
2023-03-05T09:58:07.853Z,55.35
2023-03-05T09:59:07.857Z,54.63
2023-03-05T10:00:07.855Z,54.01
2023-03-05T10:01:07.860Z,54.84
2023-03-05T10:02:08.804Z,54.84
2023-03-05T10:03:07.838Z,54.94
2023-03-05T10:04:07.836Z,55.05
2023-03-05T10:05:07.793Z,55.35
2023-03-05T10:06:07.851Z,55.74
2023-03-05T10:07:08.969Z,54.82
2023-03-05T10:08:07.743Z,55.22
2023-03-05T10:09:07.742Z,54.91
2023-03-05T10:10:07.722Z,54.89
2023-03-05T10:11:07.693Z,55.51
2023-03-05T10:12:08.625Z,53.13
2023-03-05T10:13:07.672Z,52.64
2023-03-05T10:14:07.664Z,52.25
2023-03-05T10:15:07.654Z,54.03
2023-03-05T10:16:07.835Z,53.33
2023-03-05T10:17:08.552Z,52.84
2023-03-05T10:18:07.647Z,52.43
2023-03-05T10:19:07.655Z,52.56
2023-03-05T10:20:07.583Z,53.49
2023-03-05T10:21:07.567Z,53.28
2023-03-05T10:22:08.523Z,54.00
2023-03-05T10:23:07.681Z,54.32
2023-03-05T10:24:07.522Z,55.04
2023-03-05T10:25:07.545Z,56.29
2023-03-05T10:26:07.540Z,56.49
2023-03-05T10:27:08.512Z,59.19
2023-03-05T10:28:07.485Z,60.64
2023-03-05T10:29:07.495Z,58.98
2023-03-05T10:30:07.513Z,58.95
2023-03-05T10:31:07.536Z,59.27
2023-03-05T10:32:08.551Z,61.65
2023-03-05T10:33:07.416Z,61.24
2023-03-05T10:34:07.409Z,62.04
2023-03-05T10:35:07.438Z,62.24
2023-03-05T10:36:07.393Z,64.28
2023-03-05T10:37:08.346Z,60.04
2023-03-05T10:38:07.358Z,59.42
2023-03-05T10:39:07.334Z,60.84
2023-03-05T10:40:07.332Z,61.36
2023-03-05T10:41:07.318Z,61.36
2023-03-05T10:42:07.363Z,62.37
2023-03-05T10:43:08.264Z,61.51
2023-03-05T10:44:07.297Z,61.71
2023-03-05T10:45:07.264Z,61.20
2023-03-05T10:46:07.315Z,61.07
2023-03-05T10:47:07.276Z,62.62
2023-03-05T10:48:07.228Z,61.38
2023-03-05T10:49:08.129Z,60.86
2023-03-05T10:50:07.214Z,62.62
2023-03-05T10:51:07.189Z,62.30
2023-03-05T10:52:07.196Z,61.79
2023-03-05T10:53:07.171Z,62.82
2023-03-05T10:54:07.243Z,62.79
2023-03-05T10:55:08.078Z,62.90
2023-03-05T10:56:07.126Z,61.66
2023-03-05T10:57:07.122Z,62.27
2023-03-05T10:58:07.093Z,63.21
2023-03-05T10:59:07.094Z,62.62
2023-03-05T11:00:08.078Z,62.41
2023-03-05T11:01:07.146Z,62.41
2023-03-05T11:02:07.073Z,62.72
2023-03-05T11:03:07.045Z,64.17
2023-03-05T11:04:07.130Z,63.23
2023-03-05T11:05:07.919Z,66.16
2023-03-05T11:06:07.041Z,66.06
2023-03-05T11:07:07.049Z,64.51
2023-03-05T11:08:07.000Z,65.95
2023-03-05T11:09:06.954Z,66.60
2023-03-05T11:10:06.961Z,68.46
2023-03-05T11:11:07.860Z,67.02
2023-03-05T11:12:06.903Z,66.71
2023-03-05T11:13:06.946Z,65.67
2023-03-05T11:14:06.881Z,61.95
2023-03-05T11:15:06.859Z,65.36
2023-03-05T11:16:07.862Z,63.43
2023-03-05T11:17:06.852Z,64.04
2023-03-05T11:18:06.829Z,66.12
2023-03-05T11:19:06.822Z,66.63
2023-03-05T11:20:06.782Z,64.87
2023-03-05T11:21:07.737Z,66.02
2023-03-05T11:22:06.804Z,65.29
2023-03-05T11:23:06.760Z,62.70
2023-03-05T11:24:06.794Z,64.77
2023-03-05T11:25:06.732Z,65.29
2023-03-05T11:26:06.753Z,64.46
2023-03-05T11:27:07.642Z,66.53
2023-03-05T11:28:06.726Z,63.43
2023-03-05T11:29:06.702Z,64.04
2023-03-05T11:30:06.734Z,60.53
2023-03-05T11:31:06.772Z,60.87
2023-03-05T11:32:06.660Z,59.73
2023-03-05T11:33:09.431Z,61.83
2023-03-05T11:34:06.657Z,59.89
2023-03-05T11:35:06.619Z,63.02
2023-03-05T11:36:06.610Z,62.40
2023-03-05T11:37:06.598Z,63.85
2023-03-05T11:38:06.571Z,64.86
2023-03-05T11:39:07.495Z,65.53
2023-03-05T11:40:06.573Z,67.98
2023-03-05T11:41:06.555Z,66.09
2023-03-05T11:42:06.561Z,65.99
2023-03-05T11:43:06.494Z,64.09
2023-03-05T11:44:06.483Z,61.30
2023-03-05T11:45:07.397Z,60.99
2023-03-05T11:46:06.603Z,61.12
2023-03-05T11:47:06.472Z,61.43
2023-03-05T11:48:06.453Z,63.50
2023-03-05T11:49:06.449Z,63.19
2023-03-05T11:50:06.435Z,61.85
2023-03-05T11:51:07.358Z,58.33
2023-03-05T11:52:06.403Z,60.01
2023-03-05T11:53:06.361Z,59.08
2023-03-05T11:54:06.417Z,60.56
2023-03-05T11:55:06.379Z,63.87
2023-03-05T11:56:07.280Z,61.80
2023-03-05T11:57:06.331Z,61.90
2023-03-05T11:58:06.318Z,63.25
2023-03-05T11:59:06.299Z,62.11
2023-03-05T12:00:06.287Z,61.83
2023-03-05T12:01:07.242Z,66.00
2023-03-05T12:02:06.284Z,66.93
2023-03-05T12:03:06.317Z,69.94
2023-03-05T12:04:06.284Z,71.28
2023-03-05T12:05:06.215Z,72.39
2023-03-05T12:06:07.140Z,72.71
2023-03-05T12:07:06.201Z,72.08
2023-03-05T12:08:06.192Z,71.46
2023-03-05T12:09:06.154Z,74.12
2023-03-05T12:10:06.194Z,74.43
2023-03-05T12:11:06.155Z,73.15
2023-03-05T12:12:07.054Z,72.08
2023-03-05T12:13:06.179Z,72.47
2023-03-05T12:14:06.120Z,67.65
2023-03-05T12:15:06.129Z,68.41
2023-03-05T12:16:06.197Z,64.67
2023-03-05T12:17:06.063Z,65.59
2023-03-05T12:18:06.981Z,66.42
2023-03-05T12:19:06.041Z,67.45
2023-03-05T12:20:06.083Z,63.84
2023-03-05T12:21:06.152Z,62.19
2023-03-05T12:22:06.015Z,62.08
2023-03-05T12:23:06.935Z,63.43
2023-03-05T12:24:05.973Z,63.29
2023-03-05T12:25:05.945Z,60.38
2023-03-05T12:26:05.962Z,62.62
2023-03-05T12:27:05.996Z,60.74
2023-03-05T12:28:06.844Z,61.22
2023-03-05T12:29:05.941Z,60.78
2023-03-05T12:30:05.900Z,58.52
2023-03-05T12:31:05.929Z,57.98
2023-03-05T12:32:06.020Z,58.80
2023-03-05T12:33:06.774Z,58.78
2023-03-05T12:34:05.832Z,56.51
2023-03-05T12:35:05.811Z,57.10
2023-03-05T12:36:05.889Z,56.05
2023-03-05T12:37:05.828Z,55.10
2023-03-05T12:38:24.288Z,54.69
2023-03-05T12:39:08.217Z,53.77
2023-03-05T12:40:05.773Z,54.21
2023-03-05T12:41:05.807Z,50.22
2023-03-05T12:42:05.750Z,53.12
2023-03-05T12:43:05.723Z,53.56
2023-03-05T12:44:06.750Z,51.53
2023-03-05T12:45:05.762Z,53.09
2023-03-05T12:46:05.716Z,54.43
2023-03-05T12:47:05.677Z,55.69
2023-03-05T12:48:05.665Z,53.97
2023-03-05T12:49:06.638Z,52.45
2023-03-05T12:50:05.706Z,52.60
2023-03-05T12:51:05.650Z,55.82
2023-03-05T12:52:05.627Z,58.76
2023-03-05T12:53:05.614Z,60.73
2023-03-05T12:54:05.576Z,65.27